sensor_id;sensor_type;location;lat;lon;timestamp;P1;durP1;ratioP1;P2;durP2;ratioP2
549;SDS011;20066;48.764;9.176;2023-07-28T00:01:43;5.40;;;3.87;;
549;SDS011;20066;48.764;9.176;2023-07-28T00:04:11;6.53;;;4.30;;
549;SDS011;20066;48.764;9.176;2023-07-28T00:06:39;6.20;;;4.53;;
549;SDS011;20066;48.764;9.176;2023-07-28T00:09:07;6.70;;;4.37;;
549;SDS011;20066;48.764;9.176;2023-07-28T00:11:35;6.20;;;4.97;;
549;SDS011;20066;48.764;9.176;2023-07-28T00:14:03;8.07;;;4.23;;
549;SDS011;20066;48.764;9.176;2023-07-28T00:16:30;5.30;;;3.70;;
549;SDS011;20066;48.764;9.176;2023-07-28T00:19:01;6.70;;;3.87;;
549;SDS011;20066;48.764;9.176;2023-07-28T00:21:29;6.50;;;4.00;;
549;SDS011;20066;48.764;9.176;2023-07-28T00:23:57;8.90;;;4.00;;
549;SDS011;20066;48.764;9.176;2023-07-28T00:26:25;7.73;;;4.27;;
549;SDS011;20066;48.764;9.176;2023-07-28T00:28:52;6.07;;;3.97;;
549;SDS011;20066;48.764;9.176;2023-07-28T00:31:20;7.07;;;4.03;;
549;SDS011;20066;48.764;9.176;2023-07-28T00:33:48;5.80;;;3.90;;
549;SDS011;20066;48.764;9.176;2023-07-28T00:36:17;5.33;;;4.27;;
549;SDS011;20066;48.764;9.176;2023-07-28T00:38:45;5.40;;;3.90;;
549;SDS011;20066;48.764;9.176;2023-07-28T00:41:13;6.70;;;4.30;;
549;SDS011;20066;48.764;9.176;2023-07-28T00:43:41;5.73;;;3.97;;
549;SDS011;20066;48.764;9.176;2023-07-28T00:46:08;5.60;;;4.10;;
549;SDS011;20066;48.764;9.176;2023-07-28T00:48:37;5.30;;;3.80;;
549;SDS011;20066;48.764;9.176;2023-07-28T00:51:07;4.60;;;4.10;;
549;SDS011;20066;48.764;9.176;2023-07-28T00:53:36;5.80;;;3.50;;
549;SDS011;20066;48.764;9.176;2023-07-28T00:56:05;5.63;;;3.90;;
549;SDS011;20066;48.764;9.176;2023-07-28T00:58:33;5.93;;;4.23;;
549;SDS011;20066;48.764;9.176;2023-07-28T01:01:01;6.10;;;3.33;;
549;SDS011;20066;48.764;9.176;2023-07-28T01:03:29;5.20;;;3.70;;
549;SDS011;20066;48.764;9.176;2023-07-28T01:06:01;6.97;;;3.83;;
549;SDS011;20066;48.764;9.176;2023-07-28T01:08:46;7.53;;;4.13;;
549;SDS011;20066;48.764;9.176;2023-07-28T01:11:19;5.20;;;3.67;;
549;SDS011;20066;48.764;9.176;2023-07-28T01:13:47;6.53;;;4.50;;
549;SDS011;20066;48.764;9.176;2023-07-28T01:16:15;6.70;;;4.30;;
549;SDS011;20066;48.764;9.176;2023-07-28T01:18:43;6.57;;;3.77;;
549;SDS011;20066;48.764;9.176;2023-07-28T01:21:13;4.80;;;3.73;;
549;SDS011;20066;48.764;9.176;2023-07-28T01:23:52;11.83;;;3.83;;
549;SDS011;20066;48.764;9.176;2023-07-28T01:26:33;6.30;;;3.60;;
549;SDS011;20066;48.764;9.176;2023-07-28T01:29:02;6.47;;;3.73;;
549;SDS011;20066;48.764;9.176;2023-07-28T01:31:31;4.93;;;3.50;;
549;SDS011;20066;48.764;9.176;2023-07-28T01:33:59;5.67;;;3.60;;
549;SDS011;20066;48.764;9.176;2023-07-28T01:36:26;5.70;;;3.73;;
549;SDS011;20066;48.764;9.176;2023-07-28T01:38:54;6.70;;;3.87;;
549;SDS011;20066;48.764;9.176;2023-07-28T01:41:22;6.90;;;4.00;;
549;SDS011;20066;48.764;9.176;2023-07-28T01:43:51;4.80;;;3.80;;
549;SDS011;20066;48.764;9.176;2023-07-28T01:46:21;5.00;;;3.70;;
549;SDS011;20066;48.764;9.176;2023-07-28T01:48:49;6.10;;;3.80;;
549;SDS011;20066;48.764;9.176;2023-07-28T01:51:17;5.63;;;3.77;;
549;SDS011;20066;48.764;9.176;2023-07-28T01:53:45;5.23;;;3.97;;
549;SDS011;20066;48.764;9.176;2023-07-28T01:56:13;4.30;;;3.20;;
549;SDS011;20066;48.764;9.176;2023-07-28T01:58:41;8.03;;;3.80;;
549;SDS011;20066;48.764;9.176;2023-07-28T02:01:10;4.30;;;3.80;;
549;SDS011;20066;48.764;9.176;2023-07-28T02:03:40;5.87;;;3.57;;
549;SDS011;20066;48.764;9.176;2023-07-28T02:06:07;9.60;;;4.30;;
549;SDS011;20066;48.764;9.176;2023-07-28T02:08:35;5.33;;;3.60;;
549;SDS011;20066;48.764;9.176;2023-07-28T02:11:03;5.93;;;4.53;;
549;SDS011;20066;48.764;9.176;2023-07-28T02:13:30;7.30;;;3.70;;
549;SDS011;20066;48.764;9.176;2023-07-28T02:15:58;5.00;;;3.90;;
549;SDS011;20066;48.764;9.176;2023-07-28T02:18:27;6.10;;;3.60;;
549;SDS011;20066;48.764;9.176;2023-07-28T02:20:55;5.63;;;3.80;;
549;SDS011;20066;48.764;9.176;2023-07-28T02:23:23;5.50;;;3.50;;
549;SDS011;20066;48.764;9.176;2023-07-28T02:25:51;5.33;;;3.87;;
549;SDS011;20066;48.764;9.176;2023-07-28T02:28:18;4.80;;;3.70;;
549;SDS011;20066;48.764;9.176;2023-07-28T02:30:46;4.77;;;3.83;;
549;SDS011;20066;48.764;9.176;2023-07-28T02:33:14;4.70;;;3.63;;
549;SDS011;20066;48.764;9.176;2023-07-28T02:35:44;7.70;;;3.50;;
549;SDS011;20066;48.764;9.176;2023-07-28T02:38:13;6.53;;;3.80;;
549;SDS011;20066;48.764;9.176;2023-07-28T02:40:41;4.87;;;3.40;;
549;SDS011;20066;48.764;9.176;2023-07-28T02:43:10;8.60;;;4.10;;
549;SDS011;20066;48.764;9.176;2023-07-28T02:45:37;5.23;;;3.30;;
549;SDS011;20066;48.764;9.176;2023-07-28T02:48:05;5.63;;;3.27;;
549;SDS011;20066;48.764;9.176;2023-07-28T02:50:33;4.90;;;3.33;;
549;SDS011;20066;48.764;9.176;2023-07-28T02:53:02;4.60;;;3.43;;
549;SDS011;20066;48.764;9.176;2023-07-28T02:55:30;4.13;;;3.50;;
549;SDS011;20066;48.764;9.176;2023-07-28T02:57:58;4.30;;;2.90;;
549;SDS011;20066;48.764;9.176;2023-07-28T03:00:25;5.37;;;3.67;;
549;SDS011;20066;48.764;9.176;2023-07-28T03:02:53;5.90;;;3.37;;
549;SDS011;20066;48.764;9.176;2023-07-28T03:05:21;5.70;;;3.43;;
549;SDS011;20066;48.764;9.176;2023-07-28T03:07:49;8.20;;;3.77;;
549;SDS011;20066;48.764;9.176;2023-07-28T03:10:18;5.93;;;3.40;;
549;SDS011;20066;48.764;9.176;2023-07-28T03:12:46;5.17;;;3.50;;
549;SDS011;20066;48.764;9.176;2023-07-28T03:15:13;6.30;;;3.40;;
549;SDS011;20066;48.764;9.176;2023-07-28T03:17:41;4.40;;;3.30;;
549;SDS011;20066;48.764;9.176;2023-07-28T03:20:09;5.43;;;3.63;;
549;SDS011;20066;48.764;9.176;2023-07-28T03:22:38;5.00;;;3.57;;
549;SDS011;20066;48.764;9.176;2023-07-28T03:25:05;6.37;;;3.53;;
549;SDS011;20066;48.764;9.176;2023-07-28T03:27:35;6.73;;;4.37;;
549;SDS011;20066;48.764;9.176;2023-07-28T03:30:03;6.13;;;3.23;;
549;SDS011;20066;48.764;9.176;2023-07-28T03:32:33;8.50;;;3.87;;
549;SDS011;20066;48.764;9.176;2023-07-28T03:35:01;6.97;;;3.53;;
549;SDS011;20066;48.764;9.176;2023-07-28T03:37:31;4.70;;;3.67;;
549;SDS011;20066;48.764;9.176;2023-07-28T03:39:59;4.07;;;3.00;;
549;SDS011;20066;48.764;9.176;2023-07-28T03:42:27;5.47;;;3.70;;
549;SDS011;20066;48.764;9.176;2023-07-28T03:44:56;6.53;;;3.80;;
549;SDS011;20066;48.764;9.176;2023-07-28T03:47:24;5.90;;;3.53;;
549;SDS011;20066;48.764;9.176;2023-07-28T03:49:52;6.87;;;4.30;;
549;SDS011;20066;48.764;9.176;2023-07-28T03:52:19;5.90;;;3.80;;
549;SDS011;20066;48.764;9.176;2023-07-28T03:54:47;8.10;;;3.77;;
549;SDS011;20066;48.764;9.176;2023-07-28T03:57:15;7.90;;;5.23;;
549;SDS011;20066;48.764;9.176;2023-07-28T03:59:43;8.27;;;4.50;;
549;SDS011;20066;48.764;9.176;2023-07-28T04:02:12;11.50;;;4.10;;
549;SDS011;20066;48.764;9.176;2023-07-28T04:04:40;5.40;;;4.17;;
549;SDS011;20066;48.764;9.176;2023-07-28T04:07:07;6.87;;;4.97;;
549;SDS011;20066;48.764;9.176;2023-07-28T04:09:35;5.10;;;3.87;;
549;SDS011;20066;48.764;9.176;2023-07-28T04:12:03;6.40;;;4.63;;
549;SDS011;20066;48.764;9.176;2023-07-28T04:14:31;6.20;;;4.27;;
549;SDS011;20066;48.764;9.176;2023-07-28T04:16:59;5.13;;;3.90;;
549;SDS011;20066;48.764;9.176;2023-07-28T04:19:28;5.80;;;3.80;;
549;SDS011;20066;48.764;9.176;2023-07-28T04:21:56;5.17;;;4.30;;
549;SDS011;20066;48.764;9.176;2023-07-28T04:24:24;5.43;;;3.90;;
549;SDS011;20066;48.764;9.176;2023-07-28T04:26:52;5.00;;;3.80;;
549;SDS011;20066;48.764;9.176;2023-07-28T04:29:20;5.00;;;3.43;;
549;SDS011;20066;48.764;9.176;2023-07-28T04:31:48;7.63;;;4.10;;
549;SDS011;20066;48.764;9.176;2023-07-28T04:34:15;8.50;;;4.80;;
549;SDS011;20066;48.764;9.176;2023-07-28T04:36:44;4.80;;;3.43;;
549;SDS011;20066;48.764;9.176;2023-07-28T04:39:12;6.63;;;4.83;;
549;SDS011;20066;48.764;9.176;2023-07-28T04:41:40;8.60;;;4.00;;
549;SDS011;20066;48.764;9.176;2023-07-28T04:44:08;8.10;;;4.77;;
549;SDS011;20066;48.764;9.176;2023-07-28T04:46:35;5.83;;;4.10;;
549;SDS011;20066;48.764;9.176;2023-07-28T04:49:03;5.70;;;4.90;;
549;SDS011;20066;48.764;9.176;2023-07-28T04:51:31;5.73;;;4.07;;
549;SDS011;20066;48.764;9.176;2023-07-28T04:54:00;7.67;;;4.33;;
549;SDS011;20066;48.764;9.176;2023-07-28T04:56:28;6.77;;;4.63;;
549;SDS011;20066;48.764;9.176;2023-07-28T04:58:56;9.23;;;4.47;;
549;SDS011;20066;48.764;9.176;2023-07-28T05:01:25;5.87;;;4.27;;
549;SDS011;20066;48.764;9.176;2023-07-28T05:03:53;5.73;;;4.23;;
549;SDS011;20066;48.764;9.176;2023-07-28T05:06:21;5.57;;;3.90;;
549;SDS011;20066;48.764;9.176;2023-07-28T05:08:49;10.70;;;4.30;;
549;SDS011;20066;48.764;9.176;2023-07-28T05:11:18;6.13;;;4.47;;
549;SDS011;20066;48.764;9.176;2023-07-28T05:13:46;6.73;;;4.47;;
549;SDS011;20066;48.764;9.176;2023-07-28T05:16:14;6.70;;;4.30;;
549;SDS011;20066;48.764;9.176;2023-07-28T05:18:42;7.57;;;3.80;;
549;SDS011;20066;48.764;9.176;2023-07-28T05:21:09;8.87;;;5.37;;
549;SDS011;20066;48.764;9.176;2023-07-28T05:23:37;7.00;;;4.37;;
549;SDS011;20066;48.764;9.176;2023-07-28T05:26:05;7.80;;;4.40;;
549;SDS011;20066;48.764;9.176;2023-07-28T05:28:34;7.70;;;4.07;;
549;SDS011;20066;48.764;9.176;2023-07-28T05:31:03;5.50;;;3.97;;
549;SDS011;20066;48.764;9.176;2023-07-28T05:33:31;6.70;;;4.80;;
549;SDS011;20066;48.764;9.176;2023-07-28T05:35:59;7.10;;;4.20;;
549;SDS011;20066;48.764;9.176;2023-07-28T05:38:31;9.03;;;4.43;;
549;SDS011;20066;48.764;9.176;2023-07-28T05:40:59;6.30;;;4.53;;
549;SDS011;20066;48.764;9.176;2023-07-28T05:43:30;8.17;;;4.37;;
549;SDS011;20066;48.764;9.176;2023-07-28T05:46:00;5.70;;;4.40;;
549;SDS011;20066;48.764;9.176;2023-07-28T05:48:28;10.27;;;4.80;;
549;SDS011;20066;48.764;9.176;2023-07-28T05:50:56;9.30;;;5.80;;
549;SDS011;20066;48.764;9.176;2023-07-28T05:53:24;8.03;;;5.10;;
549;SDS011;20066;48.764;9.176;2023-07-28T05:55:52;8.60;;;5.17;;
549;SDS011;20066;48.764;9.176;2023-07-28T05:58:20;12.20;;;6.10;;
549;SDS011;20066;48.764;9.176;2023-07-28T06:00:48;9.47;;;5.53;;
549;SDS011;20066;48.764;9.176;2023-07-28T06:03:17;8.67;;;5.87;;
549;SDS011;20066;48.764;9.176;2023-07-28T06:05:45;12.13;;;6.10;;
549;SDS011;20066;48.764;9.176;2023-07-28T06:08:13;12.87;;;6.67;;
549;SDS011;20066;48.764;9.176;2023-07-28T06:10:41;8.63;;;5.90;;
549;SDS011;20066;48.764;9.176;2023-07-28T06:13:09;9.03;;;5.70;;
549;SDS011;20066;48.764;9.176;2023-07-28T06:15:38;9.17;;;6.27;;
549;SDS011;20066;48.764;9.176;2023-07-28T06:18:06;9.47;;;5.70;;
549;SDS011;20066;48.764;9.176;2023-07-28T06:20:35;8.97;;;5.60;;
549;SDS011;20066;48.764;9.176;2023-07-28T06:23:03;7.33;;;4.90;;
549;SDS011;20066;48.764;9.176;2023-07-28T06:25:31;14.63;;;4.90;;
549;SDS011;20066;48.764;9.176;2023-07-28T06:27:59;7.67;;;4.73;;
549;SDS011;20066;48.764;9.176;2023-07-28T06:30:27;10.67;;;5.17;;
549;SDS011;20066;48.764;9.176;2023-07-28T06:32:55;9.77;;;6.40;;
549;SDS011;20066;48.764;9.176;2023-07-28T06:35:23;9.87;;;7.27;;
549;SDS011;20066;48.764;9.176;2023-07-28T06:37:52;16.33;;;6.63;;
549;SDS011;20066;48.764;9.176;2023-07-28T06:40:20;12.07;;;5.90;;
549;SDS011;20066;48.764;9.176;2023-07-28T06:42:47;8.53;;;5.10;;
549;SDS011;20066;48.764;9.176;2023-07-28T06:45:15;10.20;;;5.53;;
549;SDS011;20066;48.764;9.176;2023-07-28T06:47:43;13.77;;;5.50;;
549;SDS011;20066;48.764;9.176;2023-07-28T06:50:11;9.60;;;5.50;;
549;SDS011;20066;48.764;9.176;2023-07-28T06:52:39;15.23;;;6.27;;
549;SDS011;20066;48.764;9.176;2023-07-28T06:55:09;14.03;;;7.30;;
549;SDS011;20066;48.764;9.176;2023-07-28T06:57:36;13.10;;;9.80;;
549;SDS011;20066;48.764;9.176;2023-07-28T07:00:07;11.73;;;7.90;;
549;SDS011;20066;48.764;9.176;2023-07-28T07:02:36;12.70;;;8.10;;
549;SDS011;20066;48.764;9.176;2023-07-28T07:05:04;11.30;;;7.00;;
549;SDS011;20066;48.764;9.176;2023-07-28T07:07:33;18.23;;;13.00;;
549;SDS011;20066;48.764;9.176;2023-07-28T07:10:00;11.90;;;8.97;;
549;SDS011;20066;48.764;9.176;2023-07-28T07:12:30;11.77;;;8.87;;
549;SDS011;20066;48.764;9.176;2023-07-28T07:14:58;20.00;;;14.40;;
549;SDS011;20066;48.764;9.176;2023-07-28T07:17:27;16.03;;;13.20;;
549;SDS011;20066;48.764;9.176;2023-07-28T07:19:55;20.97;;;13.87;;
549;SDS011;20066;48.764;9.176;2023-07-28T07:22:23;13.30;;;8.93;;
549;SDS011;20066;48.764;9.176;2023-07-28T07:24:51;12.27;;;7.10;;
549;SDS011;20066;48.764;9.176;2023-07-28T07:27:20;13.97;;;6.63;;
549;SDS011;20066;48.764;9.176;2023-07-28T07:29:49;9.20;;;5.80;;
549;SDS011;20066;48.764;9.176;2023-07-28T07:32:17;10.00;;;5.50;;
549;SDS011;20066;48.764;9.176;2023-07-28T07:34:45;8.30;;;5.77;;
549;SDS011;20066;48.764;9.176;2023-07-28T07:37:13;12.80;;;6.00;;
549;SDS011;20066;48.764;9.176;2023-07-28T07:39:40;12.17;;;5.70;;
549;SDS011;20066;48.764;9.176;2023-07-28T07:42:10;9.50;;;5.53;;
549;SDS011;20066;48.764;9.176;2023-07-28T07:44:40;8.87;;;5.63;;
549;SDS011;20066;48.764;9.176;2023-07-28T07:47:12;8.67;;;5.57;;
549;SDS011;20066;48.764;9.176;2023-07-28T07:49:41;10.10;;;5.17;;
549;SDS011;20066;48.764;9.176;2023-07-28T07:52:09;8.67;;;6.20;;
549;SDS011;20066;48.764;9.176;2023-07-28T07:54:37;11.60;;;6.00;;
549;SDS011;20066;48.764;9.176;2023-07-28T07:57:05;9.33;;;5.47;;
549;SDS011;20066;48.764;9.176;2023-07-28T07:59:33;8.27;;;5.40;;
549;SDS011;20066;48.764;9.176;2023-07-28T08:02:02;10.27;;;4.90;;
549;SDS011;20066;48.764;9.176;2023-07-28T08:04:32;8.73;;;5.47;;
549;SDS011;20066;48.764;9.176;2023-07-28T08:07:00;7.10;;;5.07;;
549;SDS011;20066;48.764;9.176;2023-07-28T08:09:30;8.53;;;5.33;;
549;SDS011;20066;48.764;9.176;2023-07-28T08:11:59;8.73;;;5.10;;
549;SDS011;20066;48.764;9.176;2023-07-28T08:14:27;9.10;;;5.53;;
549;SDS011;20066;48.764;9.176;2023-07-28T08:16:55;7.80;;;4.93;;
549;SDS011;20066;48.764;9.176;2023-07-28T08:19:23;10.27;;;5.30;;
549;SDS011;20066;48.764;9.176;2023-07-28T08:21:52;13.87;;;5.30;;
549;SDS011;20066;48.764;9.176;2023-07-28T08:24:20;7.10;;;4.30;;
549;SDS011;20066;48.764;9.176;2023-07-28T08:26:47;8.10;;;4.13;;
549;SDS011;20066;48.764;9.176;2023-07-28T08:29:15;8.53;;;5.10;;
549;SDS011;20066;48.764;9.176;2023-07-28T08:31:43;7.53;;;4.60;;
549;SDS011;20066;48.764;9.176;2023-07-28T08:34:11;11.00;;;5.00;;
549;SDS011;20066;48.764;9.176;2023-07-28T08:36:39;9.43;;;4.20;;
549;SDS011;20066;48.764;9.176;2023-07-28T08:39:08;7.23;;;4.67;;
549;SDS011;20066;48.764;9.176;2023-07-28T08:41:36;8.20;;;4.40;;
549;SDS011;20066;48.764;9.176;2023-07-28T08:44:03;7.27;;;4.93;;
549;SDS011;20066;48.764;9.176;2023-07-28T08:46:32;15.73;;;4.60;;
549;SDS011;20066;48.764;9.176;2023-07-28T08:49:02;10.30;;;5.50;;
549;SDS011;20066;48.764;9.176;2023-07-28T08:51:30;8.03;;;5.40;;
549;SDS011;20066;48.764;9.176;2023-07-28T08:53:59;9.57;;;5.17;;
549;SDS011;20066;48.764;9.176;2023-07-28T08:56:28;14.77;;;6.33;;
549;SDS011;20066;48.764;9.176;2023-07-28T08:58:58;8.90;;;5.87;;
549;SDS011;20066;48.764;9.176;2023-07-28T09:01:27;7.97;;;5.70;;
549;SDS011;20066;48.764;9.176;2023-07-28T09:03:54;9.83;;;4.53;;
549;SDS011;20066;48.764;9.176;2023-07-28T09:06:27;10.50;;;5.97;;
549;SDS011;20066;48.764;9.176;2023-07-28T09:08:57;11.23;;;5.13;;
549;SDS011;20066;48.764;9.176;2023-07-28T09:11:25;15.90;;;5.00;;
549;SDS011;20066;48.764;9.176;2023-07-28T09:13:55;14.10;;;4.70;;
549;SDS011;20066;48.764;9.176;2023-07-28T09:16:23;8.07;;;4.53;;
549;SDS011;20066;48.764;9.176;2023-07-28T09:18:52;8.87;;;5.00;;
549;SDS011;20066;48.764;9.176;2023-07-28T09:21:32;9.47;;;4.60;;
549;SDS011;20066;48.764;9.176;2023-07-28T09:24:00;8.67;;;4.77;;
549;SDS011;20066;48.764;9.176;2023-07-28T09:26:36;8.17;;;4.83;;
549;SDS011;20066;48.764;9.176;2023-07-28T09:29:15;9.30;;;4.97;;
549;SDS011;20066;48.764;9.176;2023-07-28T09:31:44;7.40;;;4.20;;
549;SDS011;20066;48.764;9.176;2023-07-28T09:34:13;10.63;;;5.90;;
549;SDS011;20066;48.764;9.176;2023-07-28T09:36:52;14.60;;;5.77;;
549;SDS011;20066;48.764;9.176;2023-07-28T09:39:20;11.73;;;5.90;;
549;SDS011;20066;48.764;9.176;2023-07-28T09:41:49;13.53;;;7.00;;
549;SDS011;20066;48.764;9.176;2023-07-28T09:44:18;12.60;;;6.50;;
549;SDS011;20066;48.764;9.176;2023-07-28T09:46:49;10.90;;;5.83;;
549;SDS011;20066;48.764;9.176;2023-07-28T09:49:20;11.00;;;6.07;;
549;SDS011;20066;48.764;9.176;2023-07-28T09:51:49;14.10;;;6.50;;
549;SDS011;20066;48.764;9.176;2023-07-28T09:54:23;11.97;;;5.90;;
549;SDS011;20066;48.764;9.176;2023-07-28T09:56:55;9.67;;;5.70;;
549;SDS011;20066;48.764;9.176;2023-07-28T09:59:28;10.27;;;6.33;;
549;SDS011;20066;48.764;9.176;2023-07-28T10:01:58;9.30;;;5.90;;
549;SDS011;20066;48.764;9.176;2023-07-28T10:04:27;10.30;;;5.07;;
549;SDS011;20066;48.764;9.176;2023-07-28T10:06:56;11.43;;;5.70;;
549;SDS011;20066;48.764;9.176;2023-07-28T10:09:24;10.03;;;5.20;;
549;SDS011;20066;48.764;9.176;2023-07-28T10:11:53;8.27;;;4.67;;
549;SDS011;20066;48.764;9.176;2023-07-28T10:14:26;10.87;;;5.13;;
549;SDS011;20066;48.764;9.176;2023-07-28T10:16:55;9.60;;;5.00;;
549;SDS011;20066;48.764;9.176;2023-07-28T10:19:24;11.00;;;4.87;;
549;SDS011;20066;48.764;9.176;2023-07-28T10:21:58;5.90;;;4.47;;
549;SDS011;20066;48.764;9.176;2023-07-28T10:27:28;9.80;;;4.27;;
549;SDS011;20066;48.764;9.176;2023-07-28T10:29:59;16.10;;;4.43;;
549;SDS011;20066;48.764;9.176;2023-07-28T10:32:36;7.87;;;4.80;;
549;SDS011;20066;48.764;9.176;2023-07-28T10:35:06;9.43;;;4.70;;
549;SDS011;20066;48.764;9.176;2023-07-28T10:37:35;6.70;;;4.77;;
549;SDS011;20066;48.764;9.176;2023-07-28T10:42:56;9.03;;;4.47;;
549;SDS011;20066;48.764;9.176;2023-07-28T10:45:26;9.40;;;5.23;;
549;SDS011;20066;48.764;9.176;2023-07-28T10:47:56;5.47;;;3.90;;
549;SDS011;20066;48.764;9.176;2023-07-28T10:50:27;6.90;;;4.13;;
549;SDS011;20066;48.764;9.176;2023-07-28T10:52:55;8.73;;;4.33;;
549;SDS011;20066;48.764;9.176;2023-07-28T10:55:24;8.37;;;4.83;;
549;SDS011;20066;48.764;9.176;2023-07-28T10:57:54;7.63;;;4.13;;
549;SDS011;20066;48.764;9.176;2023-07-28T11:00:26;6.07;;;3.40;;
549;SDS011;20066;48.764;9.176;2023-07-28T11:02:54;6.40;;;3.00;;
549;SDS011;20066;48.764;9.176;2023-07-28T11:05:23;11.10;;;3.43;;
549;SDS011;20066;48.764;9.176;2023-07-28T11:07:54;5.17;;;2.73;;
549;SDS011;20066;48.764;9.176;2023-07-28T11:10:23;4.97;;;2.33;;
549;SDS011;20066;48.764;9.176;2023-07-28T11:12:52;3.50;;;1.90;;
549;SDS011;20066;48.764;9.176;2023-07-28T11:15:20;3.17;;;1.90;;
549;SDS011;20066;48.764;9.176;2023-07-28T11:17:51;3.73;;;1.80;;
549;SDS011;20066;48.764;9.176;2023-07-28T11:20:20;3.47;;;2.30;;
549;SDS011;20066;48.764;9.176;2023-07-28T11:22:51;3.20;;;2.10;;
549;SDS011;20066;48.764;9.176;2023-07-28T11:25:21;3.97;;;2.00;;
549;SDS011;20066;48.764;9.176;2023-07-28T11:27:49;3.60;;;2.00;;
549;SDS011;20066;48.764;9.176;2023-07-28T11:30:18;3.80;;;2.50;;
549;SDS011;20066;48.764;9.176;2023-07-28T11:32:48;4.20;;;2.03;;
549;SDS011;20066;48.764;9.176;2023-07-28T11:35:19;5.97;;;3.50;;
549;SDS011;20066;48.764;9.176;2023-07-28T11:37:49;11.47;;;5.70;;
549;SDS011;20066;48.764;9.176;2023-07-28T11:40:19;2.80;;;1.73;;
549;SDS011;20066;48.764;9.176;2023-07-28T11:42:49;5.43;;;2.27;;
549;SDS011;20066;48.764;9.176;2023-07-28T11:45:19;3.90;;;2.53;;
549;SDS011;20066;48.764;9.176;2023-07-28T11:47:52;3.00;;;1.80;;
549;SDS011;20066;48.764;9.176;2023-07-28T11:50:25;3.50;;;2.53;;
549;SDS011;20066;48.764;9.176;2023-07-28T11:52:54;5.60;;;2.43;;
549;SDS011;20066;48.764;9.176;2023-07-28T11:55:23;3.77;;;2.40;;
549;SDS011;20066;48.764;9.176;2023-07-28T11:57:52;4.60;;;2.17;;
549;SDS011;20066;48.764;9.176;2023-07-28T12:00:24;4.40;;;2.90;;
549;SDS011;20066;48.764;9.176;2023-07-28T12:03:01;5.70;;;2.60;;
549;SDS011;20066;48.764;9.176;2023-07-28T12:05:32;4.90;;;3.37;;
549;SDS011;20066;48.764;9.176;2023-07-28T12:08:01;5.43;;;3.07;;
549;SDS011;20066;48.764;9.176;2023-07-28T12:10:30;5.17;;;2.83;;
549;SDS011;20066;48.764;9.176;2023-07-28T12:13:05;4.80;;;3.57;;
549;SDS011;20066;48.764;9.176;2023-07-28T12:15:39;7.60;;;3.97;;
549;SDS011;20066;48.764;9.176;2023-07-28T12:18:11;6.00;;;3.50;;
549;SDS011;20066;48.764;9.176;2023-07-28T12:20:45;6.17;;;3.73;;
549;SDS011;20066;48.764;9.176;2023-07-28T12:23:14;5.30;;;3.20;;
549;SDS011;20066;48.764;9.176;2023-07-28T12:25:46;5.40;;;3.10;;
549;SDS011;20066;48.764;9.176;2023-07-28T12:28:15;6.10;;;3.60;;
549;SDS011;20066;48.764;9.176;2023-07-28T12:30:45;7.20;;;3.50;;
549;SDS011;20066;48.764;9.176;2023-07-28T12:33:15;8.43;;;3.23;;
549;SDS011;20066;48.764;9.176;2023-07-28T12:35:47;7.50;;;3.00;;
549;SDS011;20066;48.764;9.176;2023-07-28T12:38:17;5.10;;;3.67;;
549;SDS011;20066;48.764;9.176;2023-07-28T12:40:48;5.40;;;3.37;;
549;SDS011;20066;48.764;9.176;2023-07-28T12:43:18;9.43;;;3.30;;
549;SDS011;20066;48.764;9.176;2023-07-28T12:45:49;5.87;;;2.80;;
549;SDS011;20066;48.764;9.176;2023-07-28T12:48:20;3.97;;;2.83;;
549;SDS011;20066;48.764;9.176;2023-07-28T12:50:49;4.70;;;3.10;;
549;SDS011;20066;48.764;9.176;2023-07-28T12:53:29;6.03;;;3.27;;
549;SDS011;20066;48.764;9.176;2023-07-28T12:55:56;6.20;;;3.10;;
549;SDS011;20066;48.764;9.176;2023-07-28T12:58:27;4.80;;;3.03;;
549;SDS011;20066;48.764;9.176;2023-07-28T13:00:58;6.13;;;2.87;;
549;SDS011;20066;48.764;9.176;2023-07-28T13:03:28;3.90;;;2.73;;
549;SDS011;20066;48.764;9.176;2023-07-28T13:05:58;4.50;;;2.80;;
549;SDS011;20066;48.764;9.176;2023-07-28T13:08:26;4.20;;;2.57;;
549;SDS011;20066;48.764;9.176;2023-07-28T13:10:57;5.83;;;2.33;;
549;SDS011;20066;48.764;9.176;2023-07-28T13:13:28;9.43;;;3.47;;
549;SDS011;20066;48.764;9.176;2023-07-28T13:15:56;5.90;;;2.50;;
549;SDS011;20066;48.764;9.176;2023-07-28T13:18:24;4.67;;;2.73;;
549;SDS011;20066;48.764;9.176;2023-07-28T13:20:52;5.53;;;2.90;;
549;SDS011;20066;48.764;9.176;2023-07-28T13:23:21;4.90;;;3.10;;
549;SDS011;20066;48.764;9.176;2023-07-28T13:25:49;5.47;;;3.07;;
549;SDS011;20066;48.764;9.176;2023-07-28T13:28:17;4.80;;;3.13;;
549;SDS011;20066;48.764;9.176;2023-07-28T13:30:46;5.90;;;3.40;;
549;SDS011;20066;48.764;9.176;2023-07-28T13:33:13;5.80;;;3.37;;
549;SDS011;20066;48.764;9.176;2023-07-28T13:35:41;5.83;;;3.30;;
549;SDS011;20066;48.764;9.176;2023-07-28T13:38:09;4.37;;;3.17;;
549;SDS011;20066;48.764;9.176;2023-07-28T13:40:41;5.00;;;3.40;;
549;SDS011;20066;48.764;9.176;2023-07-28T13:43:08;5.80;;;3.40;;
549;SDS011;20066;48.764;9.176;2023-07-28T13:45:42;5.17;;;2.93;;
549;SDS011;20066;48.764;9.176;2023-07-28T13:48:10;6.10;;;3.73;;
549;SDS011;20066;48.764;9.176;2023-07-28T13:50:41;6.10;;;3.30;;
549;SDS011;20066;48.764;9.176;2023-07-28T13:53:20;6.50;;;3.73;;
549;SDS011;20066;48.764;9.176;2023-07-28T13:55:52;8.80;;;3.97;;
549;SDS011;20066;48.764;9.176;2023-07-28T13:58:23;6.80;;;4.10;;
549;SDS011;20066;48.764;9.176;2023-07-28T14:00:52;6.93;;;4.27;;
549;SDS011;20066;48.764;9.176;2023-07-28T14:03:20;10.73;;;4.50;;
549;SDS011;20066;48.764;9.176;2023-07-28T14:05:48;7.60;;;3.90;;
549;SDS011;20066;48.764;9.176;2023-07-28T14:08:16;11.73;;;6.00;;
549;SDS011;20066;48.764;9.176;2023-07-28T14:10:44;8.50;;;5.33;;
549;SDS011;20066;48.764;9.176;2023-07-28T14:13:13;12.30;;;5.40;;
549;SDS011;20066;48.764;9.176;2023-07-28T14:15:41;9.63;;;4.93;;
549;SDS011;20066;48.764;9.176;2023-07-28T14:18:10;10.33;;;6.10;;
549;SDS011;20066;48.764;9.176;2023-07-28T14:20:38;9.23;;;5.40;;
549;SDS011;20066;48.764;9.176;2023-07-28T14:23:19;8.73;;;5.43;;
549;SDS011;20066;48.764;9.176;2023-07-28T14:25:51;7.03;;;4.50;;
549;SDS011;20066;48.764;9.176;2023-07-28T14:28:21;7.80;;;5.03;;
549;SDS011;20066;48.764;9.176;2023-07-28T14:30:49;7.73;;;5.30;;
549;SDS011;20066;48.764;9.176;2023-07-28T14:33:18;9.50;;;5.50;;
549;SDS011;20066;48.764;9.176;2023-07-28T14:35:47;9.90;;;5.37;;
549;SDS011;20066;48.764;9.176;2023-07-28T14:38:16;9.87;;;6.10;;
549;SDS011;20066;48.764;9.176;2023-07-28T14:40:44;7.73;;;4.80;;
549;SDS011;20066;48.764;9.176;2023-07-28T14:43:17;10.83;;;5.80;;
549;SDS011;20066;48.764;9.176;2023-07-28T14:45:50;6.97;;;3.97;;
549;SDS011;20066;48.764;9.176;2023-07-28T14:48:22;9.63;;;5.40;;
549;SDS011;20066;48.764;9.176;2023-07-28T14:50:50;9.00;;;5.00;;
549;SDS011;20066;48.764;9.176;2023-07-28T14:56:07;8.40;;;5.60;;
549;SDS011;20066;48.764;9.176;2023-07-28T14:58:35;6.30;;;4.90;;
549;SDS011;20066;48.764;9.176;2023-07-28T15:01:04;11.07;;;5.37;;
549;SDS011;20066;48.764;9.176;2023-07-28T15:03:33;8.50;;;5.43;;
549;SDS011;20066;48.764;9.176;2023-07-28T15:06:02;7.77;;;5.13;;
549;SDS011;20066;48.764;9.176;2023-07-28T15:08:31;9.83;;;5.90;;
549;SDS011;20066;48.764;9.176;2023-07-28T15:11:02;9.20;;;5.60;;
549;SDS011;20066;48.764;9.176;2023-07-28T15:13:30;9.33;;;5.47;;
549;SDS011;20066;48.764;9.176;2023-07-28T15:15:58;10.77;;;5.80;;
549;SDS011;20066;48.764;9.176;2023-07-28T15:18:27;8.43;;;5.03;;
549;SDS011;20066;48.764;9.176;2023-07-28T15:20:55;7.10;;;4.70;;
549;SDS011;20066;48.764;9.176;2023-07-28T15:23:26;10.43;;;6.80;;
549;SDS011;20066;48.764;9.176;2023-07-28T15:25:53;13.80;;;7.57;;
549;SDS011;20066;48.764;9.176;2023-07-28T15:28:24;11.60;;;7.70;;
549;SDS011;20066;48.764;9.176;2023-07-28T15:30:51;11.17;;;6.03;;
549;SDS011;20066;48.764;9.176;2023-07-28T15:33:22;7.50;;;4.33;;